Time;durP1;ratioP1;P1;durP2;ratioP2;P2;SDS_P1;SDS_P2;PMS_P1;PMS_P2;Temp;Humidity;BMP_temperature;BMP_pressure;BME280_temperature;BME280_humidity;BME280_pressure;Samples;Min_cycle;Max_cycle;Signal;HPM_P1;HPM_P2
2024/03/23 00:05:36;;;;;;;30.60;16.40;;;;;;;9.79;88.65;98465.80;271977;1269;22550;-91
2024/03/23 00:11:43;;;;;;;24.90;14.60;;;;;;;9.78;88.34;98452.69;270562;1269;23826;-92
2024/03/23 00:17:48;;;;;;;23.80;13.70;;;;;;;9.78;88.26;98446.51;271880;1269;23629;-91
2024/03/23 00:23:49;;;;;;;23.50;12.70;;;;;;;9.73;88.16;98436.10;272080;1267;22485;-91
2024/03/23 00:29:57;;;;;;;20.60;11.80;;;;;;;9.71;87.88;98426.70;272334;1269;22381;-92
2024/03/23 00:36:01;;;;;;;21.70;12.50;;;;;;;9.69;87.95;98420.84;270789;1269;22277;-92
2024/03/23 00:42:05;;;;;;;20.70;10.60;;;;;;;9.67;87.84;98419.66;273111;1269;172904;-92
2024/03/23 00:48:11;;;;;;;13.30;8.00;;;;;;;9.61;87.85;98406.51;272906;1257;22634;-91
2024/03/23 00:54:14;;;;;;;18.50;10.90;;;;;;;9.62;87.81;98398.79;273096;1269;22369;-90
2024/03/23 01:00:16;;;;;;;16.90;10.40;;;;;;;9.58;87.63;98400.32;272944;1268;22248;-92
2024/03/23 01:06:18;;;;;;;15.80;9.30;;;;;;;9.56;87.51;98396.49;273120;1268;22486;-91
2024/03/23 01:12:20;;;;;;;17.70;11.00;;;;;;;9.55;87.37;98392.65;273033;1269;22250;-91
2024/03/23 01:18:23;;;;;;;15.40;9.20;;;;;;;9.53;86.95;98390.00;272827;1269;22293;-92
2024/03/23 01:24:25;;;;;;;18.90;10.10;;;;;;;9.49;86.85;98377.25;273125;1269;22379;-90
2024/03/23 01:30:28;;;;;;;16.80;9.20;;;;;;;9.44;86.83;98376.05;273100;1269;22462;-91
2024/03/23 01:36:29;;;;;;;17.10;9.80;;;;;;;9.39;86.98;98372.98;273028;1269;22391;-91
2024/03/23 01:42:31;;;;;;;14.90;9.70;;;;;;;9.32;86.79;98367.32;273064;1269;24248;-91
2024/03/23 01:48:33;;;;;;;15.60;9.20;;;;;;;9.31;86.88;98364.43;272973;1269;23094;-90
2024/03/23 01:54:35;;;;;;;14.50;8.70;;;;;;;9.31;87.39;98361.45;272474;1269;22591;-90
2024/03/23 02:00:37;;;;;;;26.60;15.50;;;;;;;9.24;87.92;98360.02;272343;1268;22472;-90
2024/03/23 02:06:39;;;;;;;26.30;15.80;;;;;;;9.15;88.32;98355.43;272771;1269;24164;-91
2024/03/23 02:12:41;;;;;;;26.00;16.70;;;;;;;9.11;89.08;98349.17;272871;1270;22367;-89
2024/03/23 02:18:43;;;;;;;32.80;17.40;;;;;;;9.08;89.45;98345.79;272676;1269;24209;-87
2024/03/23 02:24:44;;;;;;;26.70;16.80;;;;;;;9.02;89.48;98334.91;272875;1269;23562;-87
2024/03/23 02:30:46;;;;;;;31.50;16.80;;;;;;;8.97;89.85;98324.73;272743;1269;22363;-87
2024/03/23 02:36:48;;;;;;;27.20;15.00;;;;;;;8.94;90.21;98320.19;272885;1269;23053;-91
2024/03/23 02:42:51;;;;;;;23.40;12.20;;;;;;;8.91;90.55;98315.88;272757;1269;22263;-91
2024/03/23 02:48:53;;;;;;;21.60;12.50;;;;;;;8.83;90.79;98317.38;272758;1269;22475;-90
2024/03/23 02:54:55;;;;;;;25.00;13.40;;;;;;;8.75;90.37;98307.89;272601;1270;22396;-90
2024/03/23 03:00:56;;;;;;;19.10;12.20;;;;;;;8.74;90.73;98307.27;272805;1269;22264;-91
2024/03/23 03:07:00;;;;;;;19.40;11.90;;;;;;;8.73;91.55;98305.14;272298;1269;25295;-90
2024/03/23 03:13:06;;;;;;;22.80;12.90;;;;;;;8.68;91.47;98304.71;271605;1269;23459;-91
2024/03/23 03:19:10;;;;;;;25.70;13.70;;;;;;;8.65;91.65;98294.41;272497;1269;23646;-90
2024/03/23 03:25:12;;;;;;;26.10;14.90;;;;;;;8.62;91.69;98284.80;272681;1270;22289;-90
2024/03/23 03:31:18;;;;;;;28.00;14.80;;;;;;;8.60;91.87;98274.65;272102;1259;22637;-90
2024/03/23 03:37:20;;;;;;;25.40;13.30;;;;;;;8.56;92.01;98266.27;272109;1269;22289;-91
2024/03/23 03:43:22;;;;;;;24.50;13.70;;;;;;;8.50;92.76;98261.64;272784;1254;22229;-91
2024/03/23 03:49:24;;;;;;;29.30;16.50;;;;;;;8.45;92.93;98255.45;272619;1260;23680;-92
2024/03/23 03:55:29;;;;;;;25.70;15.00;;;;;;;8.38;93.06;98243.70;272330;1269;22645;-91
2024/03/23 04:01:31;;;;;;;23.30;13.90;;;;;;;8.34;93.34;98240.23;270109;1270;23259;-91
2024/03/23 04:07:36;;;;;;;23.70;13.20;;;;;;;8.28;93.91;98240.42;270233;1269;22291;-91
2024/03/23 04:13:44;;;;;;;23.20;13.60;;;;;;;8.23;94.21;98238.58;270294;1269;23514;-91
2024/03/23 04:19:48;;;;;;;26.30;13.80;;;;;;;8.20;94.58;98233.71;272668;1269;22436;-90
2024/03/23 04:25:53;;;;;;;20.20;12.60;;;;;;;8.18;95.08;98233.14;272843;1269;22239;-90
2024/03/23 04:31:59;;;;;;;22.90;12.80;;;;;;;8.13;95.29;98237.15;272733;1262;23579;-90
2024/03/23 04:38:03;;;;;;;23.80;13.20;;;;;;;8.09;95.61;98231.98;272607;1269;23655;-90
2024/03/23 04:44:05;;;;;;;26.10;13.50;;;;;;;8.04;95.95;98222.59;272545;1269;22257;-90
2024/03/23 04:50:08;;;;;;;25.60;14.10;;;;;;;8.01;96.40;98216.80;272652;1268;23719;-90
2024/03/23 04:56:09;;;;;;;24.70;14.00;;;;;;;7.99;96.78;98209.47;272845;1270;22478;-90
2024/03/23 05:02:11;;;;;;;25.40;14.60;;;;;;;7.97;97.13;98206.18;272739;1269;24112;-91
2024/03/23 05:08:13;;;;;;;33.60;19.10;;;;;;;7.98;97.70;98209.06;272793;1269;22252;-91
2024/03/23 05:14:16;;;;;;;35.60;19.40;;;;;;;8.00;97.90;98204.73;272783;1269;22827;-91
2024/03/23 05:20:19;;;;;;;32.90;19.60;;;;;;;8.04;97.98;98194.24;272753;1269;22291;-91
2024/03/23 05:26:22;;;;;;;41.90;22.40;;;;;;;8.09;97.98;98190.38;272590;1269;22367;-91
2024/03/23 05:32:25;;;;;;;31.20;17.20;;;;;;;8.13;98.36;98169.62;272482;1269;22381;-91
2024/03/23 05:38:28;;;;;;;28.10;17.10;;;;;;;8.16;98.91;98174.15;271804;1269;22390;-90
2024/03/23 05:44:31;;;;;;;36.60;20.80;;;;;;;8.18;99.25;98175.66;270722;1269;23114;-92
2024/03/23 05:50:33;;;;;;;41.60;21.80;;;;;;;8.22;99.28;98157.48;272777;1269;22619;-89
2024/03/23 05:56:35;;;;;;;36.00;20.10;;;;;;;8.23;99.19;98151.66;271061;1269;23354;-90
2024/03/23 06:02:37;;;;;;;32.90;20.00;;;;;;;8.27;99.21;98151.30;271711;1270;22562;-90
2024/03/23 06:08:39;;;;;;;37.10;21.20;;;;;;;8.31;99.12;98144.38;271086;1269;22371;-90
2024/03/23 06:14:41;;;;;;;36.30;19.20;;;;;;;8.38;99.78;98137.58;272068;1269;22281;-89
2024/03/23 06:20:43;;;;;;;37.10;19.70;;;;;;;8.49;99.89;98132.58;272710;1262;23534;-89
2024/03/23 06:26:45;;;;;;;31.70;19.40;;;;;;;8.64;99.97;98124.39;272803;1269;25066;-91
2024/03/23 06:32:47;;;;;;;29.90;17.90;;;;;;;8.77;99.86;98121.95;272838;1269;22905;-90
2024/03/23 06:38:49;;;;;;;34.30;17.60;;;;;;;8.86;99.87;98121.91;272911;1269;23517;-89
2024/03/23 06:44:51;;;;;;;29.40;16.10;;;;;;;8.96;99.85;98121.88;272819;1269;22454;-90
2024/03/23 06:50:57;;;;;;;28.20;16.10;;;;;;;9.08;99.96;98128.31;272881;1265;22294;-90
2024/03/23 06:57:02;;;;;;;26.10;16.50;;;;;;;9.24;100.00;98125.63;272897;1269;22380;-90
2024/03/23 07:03:04;;;;;;;24.90;15.10;;;;;;;9.41;99.94;98121.59;272645;1270;24195;-90
2024/03/23 07:09:06;;;;;;;28.70;16.00;;;;;;;9.56;99.88;98121.63;272785;1269;22457;-90
2024/03/23 07:15:08;;;;;;;26.70;15.20;;;;;;;9.76;100.00;98116.87;272679;1269;22274;-90
2024/03/23 07:21:10;;;;;;;24.60;15.50;;;;;;;10.01;99.94;98117.27;270779;1269;22501;-89
2024/03/23 07:27:12;;;;;;;33.80;19.10;;;;;;;10.27;99.77;98114.36;270539;1269;22987;-89
2024/03/23 07:33:14;;;;;;;33.70;18.10;;;;;;;10.54;99.56;98104.05;271259;1269;23738;-90
2024/03/23 07:39:16;;;;;;;45.40;21.60;;;;;;;10.79;99.15;98095.28;272723;1270;23205;-89
2024/03/23 07:45:20;;;;;;;27.90;17.20;;;;;;;10.99;98.50;98087.30;271587;1269;22517;-89
2024/03/23 07:51:22;;;;;;;27.70;17.20;;;;;;;11.25;98.33;98078.62;272884;1269;22421;-89
2024/03/23 07:57:24;;;;;;;26.20;18.20;;;;;;;11.64;97.69;98074.37;272760;1269;22384;-89
2024/03/23 08:03:26;;;;;;;27.20;16.40;;;;;;;11.90;96.67;98052.70;272856;1269;22384;-90
2024/03/23 08:09:28;;;;;;;25.00;16.50;;;;;;;12.05;96.46;98034.92;272835;1269;23412;-89
2024/03/23 08:15:32;;;;;;;26.60;14.70;;;;;;;12.35;95.75;98029.97;271957;1270;22617;-91
2024/03/23 08:21:35;;;;;;;19.20;12.60;;;;;;;12.81;95.15;98024.39;270961;1269;22292;-91
2024/03/23 08:27:37;;;;;;;21.40;13.00;;;;;;;13.33;93.54;98024.48;272691;1269;23300;-90
2024/03/23 08:33:39;;;;;;;23.60;15.20;;;;;;;13.57;91.29;98023.30;272619;1269;22266;-90
2024/03/23 08:39:46;;;;;;;28.30;16.70;;;;;;;13.64;89.82;98009.58;272707;1269;23050;-91
2024/03/23 08:45:50;;;;;;;18.30;10.80;;;;;;;13.69;89.88;97992.93;272755;1269;23063;-91
2024/03/23 08:51:52;;;;;;;16.20;10.80;;;;;;;13.85;88.64;97980.77;272758;1270;22257;-91
2024/03/23 08:57:54;;;;;;;15.70;9.00;;;;;;;14.12;87.52;97971.63;272842;1269;22299;-91
2024/03/23 09:03:58;;;;;;;13.00;8.90;;;;;;;14.65;86.80;97959.32;272682;1269;23078;-91
2024/03/23 09:10:00;;;;;;;15.00;8.80;;;;;;;15.05;85.41;97951.71;272752;1269;22351;-91
2024/03/23 09:16:06;;;;;;;12.60;7.90;;;;;;;15.21;84.72;97935.52;272661;1269;22474;-92
2024/03/23 09:22:08;;;;;;;5.90;4.20;;;;;;;15.37;84.77;97925.44;272743;1269;22234;-92
2024/03/23 09:28:10;;;;;;;5.80;3.40;;;;;;;15.61;82.78;97917.65;272662;1269;23398;-91
2024/03/23 09:34:15;;;;;;;5.60;3.90;;;;;;;15.83;78.72;97903.67;272884;1269;23609;-91
2024/03/23 09:40:17;;;;;;;5.40;3.30;;;;;;;16.05;75.91;97895.73;272700;1270;22394;-92
2024/03/23 09:46:19;;;;;;;7.20;3.80;;;;;;;16.31;74.72;97886.22;272756;1269;22208;-91
2024/03/23 09:52:25;;;;;;;5.50;3.30;;;;;;;16.57;73.23;97873.33;272654;1269;22344;-92
2024/03/23 09:58:27;;;;;;;8.60;4.20;;;;;;;16.94;72.29;97864.27;272533;1269;22890;-92
2024/03/23 10:04:40;;;;;;;7.10;3.80;;;;;;;17.54;71.54;97847.39;272499;1262;23530;-94
2024/03/23 10:10:42;;;;;;;6.70;4.10;;;;;;;18.36;68.89;97829.73;272705;1269;22387;-92
2024/03/23 10:16:44;;;;;;;6.50;3.80;;;;;;;19.06;64.40;97812.38;271045;1270;22571;-90
2024/03/23 10:22:46;;;;;;;7.10;3.80;;;;;;;19.20;62.23;97805.78;271918;1269;23253;-93
2024/03/23 10:28:54;;;;;;;6.20;3.80;;;;;;;19.75;61.71;97796.80;270902;1269;22578;-92
2024/03/23 10:34:56;;;;;;;5.20;3.70;;;;;;;20.51;57.07;97785.48;270641;1269;22541;-90
2024/03/23 10:40:59;;;;;;;4.70;3.40;;;;;;;21.10;55.70;97771.71;270070;1269;22536;-90
2024/03/23 10:47:02;;;;;;;6.30;3.80;;;;;;;21.65;53.06;97758.92;272545;1269;22423;-92
2024/03/23 10:53:12;;;;;;;7.70;4.30;;;;;;;21.92;48.82;97742.67;272630;1270;22392;-92
2024/03/23 10:59:15;;;;;;;5.60;3.80;;;;;;;22.24;47.17;97721.17;272690;1264;22392;-91
2024/03/23 11:05:26;;;;;;;10.20;8.10;;;;;;;22.04;45.86;97703.52;272251;1269;23088;-92
2024/03/23 11:11:30;;;;;;;6.40;4.40;;;;;;;21.94;45.09;97695.00;272410;1269;22420;-91
2024/03/23 11:18:19;;;;;;;;;;;;;;;;;;;;;
2024/03/23 11:25:42;;;;;;;4.80;2.70;;;;;;;22.07;44.52;97680.01;268682;1270;23129;-91
2024/03/23 11:40:16;;;;;;;3.80;2.60;;;;;;;23.06;44.18;97633.89;273551;1277;23616;-91
2024/03/23 11:46:53;;;;;;;3.80;2.50;;;;;;;23.58;43.58;97616.98;273026;1256;22321;-91
2024/03/23 11:53:34;;;;;;;2.60;2.00;;;;;;;23.50;42.60;97601.73;273024;1272;22249;-91
2024/03/23 11:59:58;;;;;;;2.80;2.10;;;;;;;23.31;40.93;97579.00;270119;1270;23165;-92
2024/03/23 12:06:51;;;;;;;4.20;1.90;;;;;;;23.11;40.63;97555.70;270618;1269;24226;-91
2024/03/23 12:14:02;;;;;;;5.00;2.00;;;;;;;22.85;39.36;97528.02;270319;1269;22612;-92
2024/03/23 12:20:29;;;;;;;;;;;;;;;;;;;;;
2024/03/23 12:27:12;;;;;;;2.20;1.60;;;;;;;21.87;39.10;97496.44;273250;1270;22967;-92
2024/03/23 12:33:14;;;;;;;2.60;1.70;;;;;;;21.33;39.36;97483.15;273257;1270;23003;-91
2024/03/23 12:39:20;;;;;;;2.80;1.80;;;;;;;20.93;39.87;97474.17;272167;1269;273252;-91
2024/03/23 12:45:28;;;;;;;4.10;2.80;;;;;;;20.89;40.52;97455.96;270057;1269;23893;-92
2024/03/23 12:51:30;;;;;;;7.10;2.20;;;;;;;21.27;40.80;97440.90;269136;1256;23690;-93
2024/03/23 12:57:35;;;;;;;4.80;2.40;;;;;;;21.50;39.76;97426.92;270257;1270;22369;-92
2024/03/23 13:03:45;;;;;;;7.70;1.90;;;;;;;21.44;39.15;97414.90;270869;1269;22301;-88
2024/03/23 13:09:51;;;;;;;2.40;1.50;;;;;;;21.40;39.74;97390.84;272571;1270;23233;-91
2024/03/23 13:15:55;;;;;;;5.40;1.80;;;;;;;21.51;39.93;97373.38;272761;1270;23614;-91
2024/03/23 13:21:58;;;;;;;2.00;1.40;;;;;;;21.49;40.02;97361.07;272509;1269;23532;-89
2024/03/23 13:28:01;;;;;;;2.10;1.30;;;;;;;21.60;39.82;97344.91;270889;1254;22717;-90
2024/03/23 13:34:02;;;;;;;3.30;1.30;;;;;;;21.75;38.80;97336.55;272121;1269;22411;-91
2024/03/23 13:40:06;;;;;;;4.10;1.30;;;;;;;21.75;38.13;97322.95;270475;1270;22572;-89
2024/03/23 13:46:08;;;;;;;5.60;1.50;;;;;;;21.65;36.78;97316.06;269754;1269;23186;-91
2024/03/23 13:52:13;;;;;;;2.40;1.40;;;;;;;21.47;36.80;97315.53;270610;1262;22861;-91
2024/03/23 13:58:16;;;;;;;3.10;1.70;;;;;;;21.10;36.26;97305.20;271005;1270;22401;-93
2024/03/23 14:04:20;;;;;;;4.80;1.50;;;;;;;20.58;36.87;97302.93;270505;1270;23319;-92
2024/03/23 14:10:23;;;;;;;2.20;1.50;;;;;;;20.21;37.29;97304.40;271151;1269;23325;-91
2024/03/23 14:16:25;;;;;;;3.50;1.70;;;;;;;19.99;37.60;97304.94;272114;1269;22568;-92
2024/03/23 14:22:28;;;;;;;4.30;2.40;;;;;;;19.85;37.63;97304.39;270685;1269;23319;-93
2024/03/23 14:28:29;;;;;;;7.10;2.50;;;;;;;19.66;37.93;97312.64;271022;1270;22567;-90
2024/03/23 14:34:32;;;;;;;7.50;2.50;;;;;;;19.50;37.97;97345.66;272438;1270;22909;-89
2024/03/23 14:40:34;;;;;;;63.60;7.60;;;;;;;19.10;41.02;97461.03;272803;1270;22364;-90
2024/03/23 14:46:38;;;;;;;4.10;1.60;;;;;;;17.21;50.17;97579.48;270901;1269;22670;-89
2024/03/23 14:52:40;;;;;;;2.10;1.10;;;;;;;15.21;55.20;97619.98;271235;1270;22980;-89
2024/03/23 14:58:45;;;;;;;2.30;1.00;;;;;;;14.22;57.63;97629.64;272826;1270;22521;-90
2024/03/23 15:04:47;;;;;;;3.40;1.50;;;;;;;13.66;60.24;97642.14;271071;1269;23144;-88
2024/03/23 15:10:49;;;;;;;3.10;0.60;;;;;;;13.21;62.64;97639.13;271840;1270;22443;-89
2024/03/23 15:16:52;;;;;;;3.10;1.10;;;;;;;12.80;65.16;97640.73;272807;1269;22458;-90
2024/03/23 15:22:54;;;;;;;3.20;1.30;;;;;;;12.51;67.16;97644.95;272778;1270;23455;-91
2024/03/23 15:34:58;;;;;;;2.60;1.60;;;;;;;12.17;70.51;97686.05;271985;1269;25256;-91
2024/03/23 15:41:01;;;;;;;25.80;6.60;;;;;;;12.02;72.88;97717.87;271536;1269;24383;-92
2024/03/23 15:47:05;;;;;;;9.60;4.00;;;;;;;11.82;74.89;97742.54;272161;1270;22574;-91
2024/03/23 15:53:07;;;;;;;7.70;3.90;;;;;;;11.67;75.25;97746.73;269532;1269;22622;-91
2024/03/23 15:59:09;;;;;;;7.20;3.30;;;;;;;11.51;76.31;97737.21;269635;1270;22587;-92
2024/03/23 16:05:11;;;;;;;11.30;6.60;;;;;;;11.37;78.21;97745.21;269244;1254;22309;-90
2024/03/23 16:11:13;;;;;;;6.00;3.40;;;;;;;11.18;80.78;97737.37;271947;1260;24228;-90
2024/03/23 16:17:15;;;;;;;4.40;2.60;;;;;;;10.92;84.57;97736.39;270543;1269;23685;-90
2024/03/23 16:23:21;;;;;;;5.00;2.10;;;;;;;10.76;84.90;97722.55;272760;1260;22361;-90
2024/03/23 16:29:30;;;;;;;4.70;2.10;;;;;;;10.66;84.74;97721.16;271046;1269;23338;-90
2024/03/23 16:35:34;;;;;;;5.30;2.60;;;;;;;10.53;86.21;97720.74;270464;1269;25357;-90
2024/03/23 16:41:38;;;;;;;4.60;2.50;;;;;;;10.36;87.27;97722.21;272546;1269;22255;-89
2024/03/23 16:47:44;;;;;;;5.80;2.50;;;;;;;10.29;87.94;97709.08;273290;1274;22248;-90
2024/03/23 16:53:46;;;;;;;6.20;2.00;;;;;;;10.17;88.55;97702.61;272706;1269;23094;-90
2024/03/23 16:59:48;;;;;;;5.40;2.30;;;;;;;10.11;88.83;97707.73;272820;1270;22348;-90
2024/03/23 17:05:55;;;;;;;4.60;2.50;;;;;;;10.01;88.79;97734.04;272389;1269;22545;-89
2024/03/23 17:11:57;;;;;;;4.80;2.50;;;;;;;10.00;88.87;97749.10;272156;1270;22683;-89
2024/03/23 17:17:59;;;;;;;5.20;2.30;;;;;;;9.98;89.32;97756.77;272820;1269;23090;-89
2024/03/23 17:24:03;;;;;;;6.50;3.30;;;;;;;9.95;89.65;97775.77;272329;1270;22546;-91
2024/03/23 17:30:05;;;;;;;4.40;2.60;;;;;;;9.87;90.14;97791.59;270246;1261;22415;-90
2024/03/23 17:36:08;;;;;;;7.00;3.20;;;;;;;9.78;90.72;97804.91;270432;1269;23429;-89
2024/03/23 17:42:11;;;;;;;7.00;3.30;;;;;;;9.71;91.33;97820.64;265128;1257;10002665;-90
2024/03/23 17:48:14;;;;;;;6.00;3.50;;;;;;;9.67;92.35;97848.30;272649;1269;22415;-88
2024/03/23 17:54:23;;;;;;;8.00;4.00;;;;;;;9.35;93.49;97938.34;272574;1269;22401;-92
2024/03/23 18:00:26;;;;;;;5.50;4.00;;;;;;;8.60;94.36;97982.89;272689;1269;22320;-91
2024/03/23 18:06:28;;;;;;;6.30;3.00;;;;;;;8.21;95.73;97995.52;272614;1269;22525;-90
2024/03/23 18:12:37;;;;;;;4.10;2.40;;;;;;;8.02;96.56;98003.90;272652;1270;22184;-90
2024/03/23 18:18:42;;;;;;;5.40;3.10;;;;;;;7.86;96.24;98015.89;272703;1270;22408;-90
2024/03/23 18:24:44;;;;;;;5.50;3.50;;;;;;;7.74;96.71;98011.91;272434;1255;22413;-90
2024/03/23 18:30:53;;;;;;;5.10;4.40;;;;;;;7.64;96.53;98010.38;272388;1269;22587;-89
2024/03/23 18:36:55;;;;;;;6.70;4.80;;;;;;;7.57;97.40;98017.10;271095;1270;22428;-90
2024/03/23 18:42:57;;;;;;;7.30;5.50;;;;;;;7.53;97.83;98022.51;271749;1269;22282;-90
2024/03/23 18:49:03;;;;;;;8.60;6.90;;;;;;;7.45;98.30;98035.35;272727;1257;22510;-89
2024/03/23 18:55:12;;;;;;;7.60;6.60;;;;;;;7.35;98.46;98062.73;272608;1269;23478;-89
2024/03/23 19:01:14;;;;;;;10.60;7.80;;;;;;;7.28;98.30;98073.41;272416;1269;22272;-90
2024/03/23 19:07:18;;;;;;;14.50;8.30;;;;;;;7.14;99.17;98065.65;272690;1269;22411;-89
2024/03/23 19:13:23;;;;;;;10.80;7.40;;;;;;;7.03;99.40;98049.85;271744;1256;22145;-90
2024/03/23 19:19:28;;;;;;;8.80;6.90;;;;;;;6.91;99.53;98044.66;272686;1270;22348;-88
2024/03/23 19:25:34;;;;;;;11.30;6.90;;;;;;;6.82;99.85;98061.35;272805;1269;22263;-89
2024/03/23 19:32:16;;;;;;;12.80;6.80;;;;;;;6.71;100.00;98085.02;271884;1269;22277;-89
2024/03/23 19:38:19;;;;;;;11.20;7.90;;;;;;;6.62;100.00;98093.29;272691;1270;22324;-89
2024/03/23 19:44:26;;;;;;;10.10;7.10;;;;;;;6.55;99.98;98090.27;270678;1269;22575;-88
2024/03/23 19:50:28;;;;;;;10.80;7.30;;;;;;;6.55;100.00;98097.39;271017;1269;22295;-90
2024/03/23 19:56:47;;;;;;;12.60;8.60;;;;;;;6.47;100.00;98112.21;270806;1269;23149;-91
2024/03/23 20:03:22;;;;;;;10.60;8.30;;;;;;;6.38;100.00;98117.23;271364;1269;22517;-90
2024/03/23 20:09:36;;;;;;;10.90;8.10;;;;;;;6.23;100.00;98106.08;273153;1270;22226;-91
2024/03/23 20:16:00;;;;;;;10.70;8.10;;;;;;;6.15;100.00;98096.17;272591;1269;22269;-90
2024/03/23 20:22:12;;;;;;;13.10;9.50;;;;;;;6.11;100.00;98089.52;270500;1269;23243;-91
2024/03/23 20:28:58;;;;;;;12.10;8.70;;;;;;;6.06;100.00;98084.02;270531;1269;22577;-89
2024/03/23 20:35:06;;;;;;;10.70;7.60;;;;;;;6.03;100.00;98076.29;273022;1272;22271;-91
2024/03/23 20:41:13;;;;;;;12.20;8.10;;;;;;;5.96;99.98;98061.13;273542;1270;22252;-90
2024/03/23 20:47:26;;;;;;;12.00;8.00;;;;;;;5.90;99.98;98074.94;272091;1270;22220;-91
2024/03/23 20:53:31;;;;;;;13.40;8.90;;;;;;;5.87;100.00;98078.16;270773;1269;23292;-89
2024/03/23 20:59:36;;;;;;;14.00;9.20;;;;;;;5.84;99.99;98073.53;271276;1269;22250;-91
2024/03/23 21:05:57;;;;;;;22.20;12.00;;;;;;;5.82;99.99;98070.30;272684;1269;23276;-91
2024/03/23 21:11:59;;;;;;;24.60;12.20;;;;;;;5.79;99.82;98070.47;272631;1265;22273;-91
2024/03/23 21:18:05;;;;;;;15.80;10.60;;;;;;;5.77;99.81;98079.99;272409;1269;23108;-92
2024/03/23 21:24:11;;;;;;;21.20;12.70;;;;;;;5.71;99.46;98089.52;272547;1269;22302;-90
2024/03/23 21:30:24;;;;;;;15.70;9.90;;;;;;;5.68;99.70;98085.66;272685;1270;22378;-89
2024/03/23 21:36:28;;;;;;;11.90;7.20;;;;;;;5.62;99.63;98082.54;272676;1269;22347;-90
2024/03/23 21:42:30;;;;;;;10.20;6.10;;;;;;;5.54;99.19;98080.86;272537;1269;22286;-90
2024/03/23 21:48:35;;;;;;;9.90;6.30;;;;;;;5.46;98.95;98076.92;270759;1270;22565;-90
2024/03/23 21:54:41;;;;;;;10.40;6.00;;;;;;;5.38;98.75;98069.20;269582;1269;22569;-89
2024/03/23 22:00:45;;;;;;;7.70;4.90;;;;;;;5.32;98.73;98063.04;271005;1269;22457;-91
2024/03/23 22:06:49;;;;;;;7.10;4.50;;;;;;;5.24;98.55;98053.99;270630;1270;22405;-90
2024/03/23 22:12:50;;;;;;;8.80;4.80;;;;;;;5.15;97.88;98041.20;271138;1269;22586;-91
2024/03/23 22:18:56;;;;;;;8.00;4.80;;;;;;;5.11;97.88;98052.67;269618;1270;22536;-90
2024/03/23 22:25:02;;;;;;;8.80;5.00;;;;;;;5.11;98.39;98061.20;271429;1269;22344;-91
2024/03/23 22:31:08;;;;;;;8.60;4.40;;;;;;;5.10;98.85;98061.27;271193;1269;22578;-90
2024/03/23 22:37:13;;;;;;;12.90;5.50;;;;;;;5.07;98.90;98063.77;270534;1269;23447;-89
2024/03/23 22:43:15;;;;;;;9.50;4.70;;;;;;;4.99;98.63;98052.16;272647;1264;22389;-91
2024/03/23 22:49:23;;;;;;;9.90;5.10;;;;;;;4.96;98.45;98039.70;272686;1270;22386;-89
2024/03/23 22:55:27;;;;;;;9.10;4.70;;;;;;;4.93;98.62;98036.86;271752;1269;24109;-91
2024/03/23 23:01:35;;;;;;;9.70;5.20;;;;;;;4.89;98.12;98049.17;272702;1269;22277;-90
2024/03/23 23:07:42;;;;;;;8.70;4.70;;;;;;;4.85;97.91;98062.77;270317;1269;25269;-89
2024/03/23 23:13:54;;;;;;;7.90;4.70;;;;;;;4.81;97.76;98066.94;272181;1269;22295;-89
2024/03/23 23:19:57;;;;;;;9.60;5.00;;;;;;;4.78;97.95;98066.66;272544;1269;22461;-90
2024/03/23 23:25:59;;;;;;;8.00;4.60;;;;;;;4.74;98.02;98059.14;271569;1269;22437;-88
2024/03/23 23:32:01;;;;;;;8.00;5.10;;;;;;;4.71;98.78;98054.83;272670;1269;23587;-90
2024/03/23 23:38:03;;;;;;;8.80;5.20;;;;;;;4.64;98.10;98057.64;272115;1270;22595;-90
2024/03/23 23:44:06;;;;;;;10.90;4.90;;;;;;;4.58;97.68;98057.36;271200;1269;22331;-88
2024/03/23 23:50:08;;;;;;;8.40;4.30;;;;;;;4.55;97.98;98062.87;270860;1269;22586;-90
2024/03/23 23:56:10;;;;;;;9.40;5.00;;;;;;;4.51;97.67;98060.09;270216;1270;22524;-89
